sensor_id;sensor_type;location;lat;lon;timestamp;pressure;altitude;pressure_sealevel;temperature;humidity
76590;BME280;65471;55.908;37.880;2022-12-18T00:01:18;99354.34;;;-5.99;96.99
76590;BME280;65471;55.908;37.880;2022-12-18T00:03:45;99352.81;;;-6.01;96.70
76590;BME280;65471;55.908;37.880;2022-12-18T00:06:12;99353.06;;;-5.95;97.17
76590;BME280;65471;55.908;37.880;2022-12-18T00:08:40;99340.38;;;-5.99;96.40
76590;BME280;65471;55.908;37.880;2022-12-18T00:11:07;99335.34;;;-6.12;97.10
76590;BME280;65471;55.908;37.880;2022-12-18T00:13:34;99339.25;;;-6.07;96.34
76590;BME280;65471;55.908;37.880;2022-12-18T00:16:06;99323.59;;;-6.08;97.00
76590;BME280;65471;55.908;37.880;2022-12-18T00:18:33;99322.34;;;-6.04;97.11
76590;BME280;65471;55.908;37.880;2022-12-18T00:21:00;99324.84;;;-6.02;96.74
76590;BME280;65471;55.908;37.880;2022-12-18T00:23:27;99321.78;;;-6.08;97.11
76590;BME280;65471;55.908;37.880;2022-12-18T00:25:54;99306.81;;;-6.07;96.93
76590;BME280;65471;55.908;37.880;2022-12-18T00:28:21;99307.94;;;-6.10;97.17
76590;BME280;65471;55.908;37.880;2022-12-18T00:30:48;99300.03;;;-6.10;96.51
76590;BME280;65471;55.908;37.880;2022-12-18T00:33:17;99288.53;;;-5.99;96.74
76590;BME280;65471;55.908;37.880;2022-12-18T00:35:44;99293.53;;;-6.05;96.76
76590;BME280;65471;55.908;37.880;2022-12-18T00:38:10;99283.28;;;-6.09;96.48
76590;BME280;65471;55.908;37.880;2022-12-18T00:40:37;99280.78;;;-6.10;96.53
76590;BME280;65471;55.908;37.880;2022-12-18T00:43:04;99271.63;;;-6.06;96.46
76590;BME280;65471;55.908;37.880;2022-12-18T00:45:31;99295.75;;;-6.11;96.81
76590;BME280;65471;55.908;37.880;2022-12-18T00:47:57;99268.03;;;-6.05;96.37
76590;BME280;65471;55.908;37.880;2022-12-18T00:50:24;99275.22;;;-6.07;96.41
76590;BME280;65471;55.908;37.880;2022-12-18T00:52:51;99262.34;;;-6.10;96.53
76590;BME280;65471;55.908;37.880;2022-12-18T00:55:18;99252.53;;;-6.08;96.83
76590;BME280;65471;55.908;37.880;2022-12-18T00:57:45;99255.44;;;-6.11;96.09
76590;BME280;65471;55.908;37.880;2022-12-18T01:00:13;99254.47;;;-6.10;96.55
76590;BME280;65471;55.908;37.880;2022-12-18T01:02:40;99248.91;;;-6.07;96.44
76590;BME280;65471;55.908;37.880;2022-12-18T01:05:08;99247.81;;;-6.14;96.52
76590;BME280;65471;55.908;37.880;2022-12-18T01:07:35;99249.47;;;-6.03;96.63
76590;BME280;65471;55.908;37.880;2022-12-18T01:10:02;99245.16;;;-6.14;96.53
76590;BME280;65471;55.908;37.880;2022-12-18T01:12:29;99236.59;;;-6.16;96.11
76590;BME280;65471;55.908;37.880;2022-12-18T01:14:56;99233.97;;;-6.16;96.54
76590;BME280;65471;55.908;37.880;2022-12-18T01:17:22;99222.47;;;-6.15;96.20
76590;BME280;65471;55.908;37.880;2022-12-18T01:19:49;99219.84;;;-6.15;96.37
76590;BME280;65471;55.908;37.880;2022-12-18T01:22:16;99210.00;;;-6.13;96.35
76590;BME280;65471;55.908;37.880;2022-12-18T01:24:42;99210.72;;;-6.21;96.08
76590;BME280;65471;55.908;37.880;2022-12-18T01:27:09;99210.28;;;-6.16;96.54
76590;BME280;65471;55.908;37.880;2022-12-18T01:29:35;99201.16;;;-6.22;96.55
76590;BME280;65471;55.908;37.880;2022-12-18T01:32:02;99198.50;;;-6.22;96.13
76590;BME280;65471;55.908;37.880;2022-12-18T01:34:29;99192.81;;;-6.27;95.89
76590;BME280;65471;55.908;37.880;2022-12-18T01:36:58;99194.34;;;-6.25;95.72
76590;BME280;65471;55.908;37.880;2022-12-18T01:39:25;99184.13;;;-6.18;96.13
76590;BME280;65471;55.908;37.880;2022-12-18T01:41:51;99171.38;;;-6.22;96.29
76590;BME280;65471;55.908;37.880;2022-12-18T01:47:26;99179.94;;;-6.20;95.48
76590;BME280;65471;55.908;37.880;2022-12-18T01:49:54;99183.28;;;-6.18;95.36
76590;BME280;65471;55.908;37.880;2022-12-18T01:52:21;99183.81;;;-6.25;95.49
76590;BME280;65471;55.908;37.880;2022-12-18T01:54:49;99180.78;;;-6.20;95.54
76590;BME280;65471;55.908;37.880;2022-12-18T01:57:20;99183.97;;;-6.26;95.33
76590;BME280;65471;55.908;37.880;2022-12-18T01:59:48;99177.31;;;-6.20;94.97
76590;BME280;65471;55.908;37.880;2022-12-18T02:02:16;99179.94;;;-6.20;94.86
76590;BME280;65471;55.908;37.880;2022-12-18T02:04:43;99165.84;;;-6.19;95.12
76590;BME280;65471;55.908;37.880;2022-12-18T02:09:46;99173.16;;;-6.23;94.96
76590;BME280;65471;55.908;37.880;2022-12-18T02:12:19;99178.03;;;-6.18;95.43
76590;BME280;65471;55.908;37.880;2022-12-18T02:14:51;99169.16;;;-6.17;94.59
76590;BME280;65471;55.908;37.880;2022-12-18T02:17:22;99171.78;;;-6.27;94.69
76590;BME280;65471;55.908;37.880;2022-12-18T02:25:00;99173.31;;;-6.25;95.26
76590;BME280;65471;55.908;37.880;2022-12-18T02:27:29;99176.34;;;-6.29;94.89
76590;BME280;65471;55.908;37.880;2022-12-18T02:29:57;99171.53;;;-6.24;95.45
76590;BME280;65471;55.908;37.880;2022-12-18T02:32:26;99172.19;;;-6.32;95.28
76590;BME280;65471;55.908;37.880;2022-12-18T02:34:54;99175.25;;;-6.27;94.74
76590;BME280;65471;55.908;37.880;2022-12-18T02:37:22;99171.38;;;-6.22;94.99
76590;BME280;65471;55.908;37.880;2022-12-18T02:39:51;99180.81;;;-6.30;95.14
76590;BME280;65471;55.908;37.880;2022-12-18T02:42:20;99178.41;;;-6.33;95.14
76590;BME280;65471;55.908;37.880;2022-12-18T02:44:49;99175.94;;;-6.34;94.91
76590;BME280;65471;55.908;37.880;2022-12-18T02:47:20;99177.03;;;-6.27;94.51
76590;BME280;65471;55.908;37.880;2022-12-18T02:55:08;99181.34;;;-6.36;94.61
76590;BME280;65471;55.908;37.880;2022-12-18T02:57:46;99177.59;;;-6.43;93.96
76590;BME280;65471;55.908;37.880;2022-12-18T03:00:37;99177.47;;;-6.32;95.08
76590;BME280;65471;55.908;37.880;2022-12-18T03:03:11;99169.84;;;-6.35;94.72
76590;BME280;65471;55.908;37.880;2022-12-18T03:06:00;99191.44;;;-6.41;94.45
76590;BME280;65471;55.908;37.880;2022-12-18T03:08:29;99181.19;;;-6.44;94.82
76590;BME280;65471;55.908;37.880;2022-12-18T03:11:01;99178.69;;;-6.36;95.22
76590;BME280;65471;55.908;37.880;2022-12-18T03:13:33;99165.84;;;-6.39;94.54
76590;BME280;65471;55.908;37.880;2022-12-18T03:16:03;99160.41;;;-6.47;95.19
76590;BME280;65471;55.908;37.880;2022-12-18T03:18:36;99157.13;;;-6.49;94.26
76590;BME280;65471;55.908;37.880;2022-12-18T03:21:05;99163.63;;;-6.44;95.06
76590;BME280;65471;55.908;37.880;2022-12-18T03:23:34;99152.81;;;-6.50;94.45
76590;BME280;65471;55.908;37.880;2022-12-18T03:26:02;99154.47;;;-6.49;94.83
76590;BME280;65471;55.908;37.880;2022-12-18T03:28:33;99141.34;;;-6.49;94.33
76590;BME280;65471;55.908;37.880;2022-12-18T03:31:03;99143.69;;;-6.46;95.15
76590;BME280;65471;55.908;37.880;2022-12-18T03:33:34;99151.41;;;-6.54;94.88
76590;BME280;65471;55.908;37.880;2022-12-18T03:36:04;99147.25;;;-6.57;94.18
76590;BME280;65471;55.908;37.880;2022-12-18T03:38:31;99158.66;;;-6.47;95.05
76590;BME280;65471;55.908;37.880;2022-12-18T03:44:00;99179.69;;;-6.47;94.07
76590;BME280;65471;55.908;37.880;2022-12-18T03:46:33;99174.56;;;-6.48;94.53
76590;BME280;65471;55.908;37.880;2022-12-18T03:49:11;99174.44;;;-6.37;94.79
76590;BME280;65471;55.908;37.880;2022-12-18T03:51:42;99171.78;;;-6.47;94.97
76590;BME280;65471;55.908;37.880;2022-12-18T03:54:12;99183.56;;;-6.51;94.80
76590;BME280;65471;55.908;37.880;2022-12-18T03:56:40;99176.63;;;-6.52;94.60
76590;BME280;65471;55.908;37.880;2022-12-18T03:59:08;99187.69;;;-6.58;94.53
76590;BME280;65471;55.908;37.880;2022-12-18T04:01:40;99186.59;;;-6.55;94.32
76590;BME280;65471;55.908;37.880;2022-12-18T04:04:08;99181.34;;;-6.55;94.23
76590;BME280;65471;55.908;37.880;2022-12-18T04:06:36;99180.19;;;-6.63;94.74
76590;BME280;65471;55.908;37.880;2022-12-18T04:09:04;99172.88;;;-6.59;94.36
76590;BME280;65471;55.908;37.880;2022-12-18T04:11:31;99165.28;;;-6.62;94.58
76590;BME280;65471;55.908;37.880;2022-12-18T04:13:58;99173.16;;;-6.62;95.15
76590;BME280;65471;55.908;37.880;2022-12-18T04:16:25;99168.31;;;-6.57;94.59
76590;BME280;65471;55.908;37.880;2022-12-18T04:18:52;99167.47;;;-6.57;94.90
76590;BME280;65471;55.908;37.880;2022-12-18T04:21:19;99161.53;;;-6.60;94.75
76590;BME280;65471;55.908;37.880;2022-12-18T04:23:46;99166.66;;;-6.58;95.47
76590;BME280;65471;55.908;37.880;2022-12-18T04:26:12;99147.69;;;-6.62;94.84
76590;BME280;65471;55.908;37.880;2022-12-18T04:28:39;99159.56;;;-6.67;94.84
76590;BME280;65471;55.908;37.880;2022-12-18T04:31:06;99160.53;;;-6.68;95.42
76590;BME280;65471;55.908;37.880;2022-12-18T04:33:33;99165.41;;;-6.64;95.18
76590;BME280;65471;55.908;37.880;2022-12-18T04:35:59;99170.38;;;-6.70;94.86
76590;BME280;65471;55.908;37.880;2022-12-18T04:38:26;99173.28;;;-6.73;94.61
76590;BME280;65471;55.908;37.880;2022-12-18T04:40:59;99181.56;;;-6.68;94.73
76590;BME280;65471;55.908;37.880;2022-12-18T04:43:26;99188.63;;;-6.69;94.98
76590;BME280;65471;55.908;37.880;2022-12-18T04:45:53;99185.72;;;-6.66;95.30
76590;BME280;65471;55.908;37.880;2022-12-18T04:48:20;99199.44;;;-6.62;94.61
76590;BME280;65471;55.908;37.880;2022-12-18T04:50:46;99215.63;;;-6.67;94.10
76590;BME280;65471;55.908;37.880;2022-12-18T04:53:13;99213.38;;;-6.71;95.01
76590;BME280;65471;55.908;37.880;2022-12-18T04:55:39;99225.53;;;-6.80;94.82
76590;BME280;65471;55.908;37.880;2022-12-18T04:58:06;99242.72;;;-6.76;94.39
76590;BME280;65471;55.908;37.880;2022-12-18T05:00:34;99258.75;;;-6.79;94.76
76590;BME280;65471;55.908;37.880;2022-12-18T05:03:02;99260.84;;;-6.73;95.17
76590;BME280;65471;55.908;37.880;2022-12-18T05:05:29;99254.47;;;-6.80;95.41
76590;BME280;65471;55.908;37.880;2022-12-18T05:07:55;99249.19;;;-6.80;95.63
76590;BME280;65471;55.908;37.880;2022-12-18T05:10:22;99255.81;;;-6.86;95.17
76590;BME280;65471;55.908;37.880;2022-12-18T05:12:49;99264.00;;;-6.79;95.88
76590;BME280;65471;55.908;37.880;2022-12-18T05:15:27;99267.91;;;-6.73;95.39
76590;BME280;65471;55.908;37.880;2022-12-18T05:17:55;99277.16;;;-6.79;95.69
76590;BME280;65471;55.908;37.880;2022-12-18T05:20:21;99281.47;;;-6.78;96.26
76590;BME280;65471;55.908;37.880;2022-12-18T05:22:48;99274.94;;;-6.84;95.67
76590;BME280;65471;55.908;37.880;2022-12-18T05:25:15;99269.81;;;-6.85;96.19
76590;BME280;65471;55.908;37.880;2022-12-18T05:27:41;99253.19;;;-6.86;95.65
76590;BME280;65471;55.908;37.880;2022-12-18T05:30:09;99251.53;;;-6.87;96.34
76590;BME280;65471;55.908;37.880;2022-12-18T05:32:36;99247.38;;;-6.89;95.76
76590;BME280;65471;55.908;37.880;2022-12-18T05:35:03;99253.47;;;-6.89;95.86
76590;BME280;65471;55.908;37.880;2022-12-18T05:37:29;99251.09;;;-6.92;96.14
76590;BME280;65471;55.908;37.880;2022-12-18T05:39:56;99259.53;;;-6.88;95.60
76590;BME280;65471;55.908;37.880;2022-12-18T05:42:23;99268.28;;;-6.88;95.63
76590;BME280;65471;55.908;37.880;2022-12-18T05:44:49;99272.81;;;-6.90;96.31
76590;BME280;65471;55.908;37.880;2022-12-18T05:47:16;99284.19;;;-6.89;95.84
76590;BME280;65471;55.908;37.880;2022-12-18T05:49:43;99289.53;;;-7.01;95.70
76590;BME280;65471;55.908;37.880;2022-12-18T05:52:22;99292.75;;;-6.87;95.51
76590;BME280;65471;55.908;37.880;2022-12-18T05:54:49;99294.69;;;-6.89;95.74
76590;BME280;65471;55.908;37.880;2022-12-18T05:57:16;99294.97;;;-6.92;95.52
76590;BME280;65471;55.908;37.880;2022-12-18T05:59:42;99306.47;;;-6.84;95.30
76590;BME280;65471;55.908;37.880;2022-12-18T06:02:09;99306.63;;;-6.85;95.27
76590;BME280;65471;55.908;37.880;2022-12-18T06:04:44;99321.41;;;-6.84;94.68
76590;BME280;65471;55.908;37.880;2022-12-18T06:07:12;99325.25;;;-6.88;94.81
76590;BME280;65471;55.908;37.880;2022-12-18T06:09:39;99324.88;;;-6.84;94.53
76590;BME280;65471;55.908;37.880;2022-12-18T06:12:05;99327.63;;;-6.85;93.68
76590;BME280;65471;55.908;37.880;2022-12-18T06:14:32;99333.41;;;-6.91;93.62
76590;BME280;65471;55.908;37.880;2022-12-18T06:16:59;99344.75;;;-6.91;93.90
76590;BME280;65471;55.908;37.880;2022-12-18T06:19:25;99344.22;;;-6.85;93.87
76590;BME280;65471;55.908;37.880;2022-12-18T06:21:52;99348.53;;;-6.84;93.72
76590;BME280;65471;55.908;37.880;2022-12-18T06:24:19;99350.97;;;-6.92;93.18
76590;BME280;65471;55.908;37.880;2022-12-18T06:27:02;99353.72;;;-6.94;93.20
76590;BME280;65471;55.908;37.880;2022-12-18T06:29:28;99356.91;;;-6.90;91.85
76590;BME280;65471;55.908;37.880;2022-12-18T06:31:55;99345.06;;;-6.84;92.76
76590;BME280;65471;55.908;37.880;2022-12-18T06:34:22;99350.84;;;-6.90;92.20
76590;BME280;65471;55.908;37.880;2022-12-18T06:36:48;99358.13;;;-6.94;91.97
76590;BME280;65471;55.908;37.880;2022-12-18T06:39:15;99360.81;;;-6.84;92.63
76590;BME280;65471;55.908;37.880;2022-12-18T06:41:45;99365.19;;;-6.95;92.46
76590;BME280;65471;55.908;37.880;2022-12-18T06:44:11;99364.03;;;-6.81;92.08
76590;BME280;65471;55.908;37.880;2022-12-18T06:46:38;99373.53;;;-6.89;91.83
76590;BME280;65471;55.908;37.880;2022-12-18T06:49:05;99367.34;;;-6.79;92.21
76590;BME280;65471;55.908;37.880;2022-12-18T06:51:32;99372.44;;;-6.87;92.27
76590;BME280;65471;55.908;37.880;2022-12-18T06:53:59;99379.69;;;-6.79;92.13
76590;BME280;65471;55.908;37.880;2022-12-18T06:56:25;99387.50;;;-6.68;91.55
76590;BME280;65471;55.908;37.880;2022-12-18T06:58:52;99380.41;;;-6.67;91.91
76590;BME280;65471;55.908;37.880;2022-12-18T07:01:19;99381.63;;;-6.71;91.37
76590;BME280;65471;55.908;37.880;2022-12-18T07:03:45;99396.13;;;-6.77;91.91
76590;BME280;65471;55.908;37.880;2022-12-18T07:06:13;99407.44;;;-6.65;92.00
76590;BME280;65471;55.908;37.880;2022-12-18T07:08:40;99414.88;;;-6.70;91.14
76590;BME280;65471;55.908;37.880;2022-12-18T07:11:07;99414.88;;;-6.70;91.32
76590;BME280;65471;55.908;37.880;2022-12-18T07:13:33;99426.22;;;-6.70;90.99
76590;BME280;65471;55.908;37.880;2022-12-18T07:16:18;99419.22;;;-6.60;90.55
76590;BME280;65471;55.908;37.880;2022-12-18T07:18:50;99430.16;;;-6.54;90.22
76590;BME280;65471;55.908;37.880;2022-12-18T07:21:18;99426.72;;;-6.55;90.75
76590;BME280;65471;55.908;37.880;2022-12-18T07:23:45;99426.59;;;-6.53;89.91
76590;BME280;65471;55.908;37.880;2022-12-18T07:26:15;99445.41;;;-6.58;90.50
76590;BME280;65471;55.908;37.880;2022-12-18T07:28:42;99446.34;;;-6.59;89.76
76590;BME280;65471;55.908;37.880;2022-12-18T07:31:11;99442.63;;;-6.56;90.25
76590;BME280;65471;55.908;37.880;2022-12-18T07:33:38;99444.19;;;-6.44;90.58
76590;BME280;65471;55.908;37.880;2022-12-18T07:36:06;99442.41;;;-6.44;90.52
76590;BME280;65471;55.908;37.880;2022-12-18T07:38:33;99446.28;;;-6.48;90.18
76590;BME280;65471;55.908;37.880;2022-12-18T07:41:01;99449.72;;;-6.47;90.31
76590;BME280;65471;55.908;37.880;2022-12-18T07:43:28;99457.31;;;-6.54;89.65
76590;BME280;65471;55.908;37.880;2022-12-18T07:45:55;99474.44;;;-6.60;89.48
76590;BME280;65471;55.908;37.880;2022-12-18T07:48:22;99476.09;;;-6.37;89.68
76590;BME280;65471;55.908;37.880;2022-12-18T07:50:48;99481.75;;;-6.42;89.69
76590;BME280;65471;55.908;37.880;2022-12-18T07:53:15;99484.38;;;-6.42;89.52
76590;BME280;65471;55.908;37.880;2022-12-18T07:55:42;99488.34;;;-6.48;89.20
76590;BME280;65471;55.908;37.880;2022-12-18T07:58:28;99486.53;;;-6.47;89.31
76590;BME280;65471;55.908;37.880;2022-12-18T08:01:02;99491.31;;;-6.41;90.28
76590;BME280;65471;55.908;37.880;2022-12-18T08:03:29;99493.88;;;-6.30;90.28
76590;BME280;65471;55.908;37.880;2022-12-18T08:06:13;99494.16;;;-6.44;89.44
76590;BME280;65471;55.908;37.880;2022-12-18T08:08:40;99493.88;;;-6.30;89.42
76590;BME280;65471;55.908;37.880;2022-12-18T08:11:08;99496.03;;;-6.14;89.37
76590;BME280;65471;55.908;37.880;2022-12-18T08:13:35;99495.97;;;-6.23;89.68
76590;BME280;65471;55.908;37.880;2022-12-18T08:16:03;99491.22;;;-6.30;89.55
76590;BME280;65471;55.908;37.880;2022-12-18T08:18:31;99494.28;;;-6.25;88.98
76590;BME280;65471;55.908;37.880;2022-12-18T08:21:06;99497.09;;;-6.16;88.73
76590;BME280;65471;55.908;37.880;2022-12-18T08:23:33;99512.63;;;-6.13;89.40
76590;BME280;65471;55.908;37.880;2022-12-18T08:26:07;99499.56;;;-6.25;89.19
76590;BME280;65471;55.908;37.880;2022-12-18T08:28:34;99515.06;;;-6.21;89.48
76590;BME280;65471;55.908;37.880;2022-12-18T08:31:00;99518.81;;;-6.24;90.13
76590;BME280;65471;55.908;37.880;2022-12-18T08:33:28;99521.94;;;-6.30;90.39
76590;BME280;65471;55.908;37.880;2022-12-18T08:35:54;99534.22;;;-6.19;90.55
76590;BME280;65471;55.908;37.880;2022-12-18T08:38:21;99535.03;;;-6.19;90.63
76590;BME280;65471;55.908;37.880;2022-12-18T08:40:49;99535.44;;;-6.23;90.29
76590;BME280;65471;55.908;37.880;2022-12-18T08:43:15;99551.63;;;-6.28;90.59
76590;BME280;65471;55.908;37.880;2022-12-18T08:46:00;99560.66;;;-6.21;90.17
76590;BME280;65471;55.908;37.880;2022-12-18T08:48:27;99559.88;;;-6.33;90.62
76590;BME280;65471;55.908;37.880;2022-12-18T08:50:57;99564.84;;;-6.18;90.29
76590;BME280;65471;55.908;37.880;2022-12-18T08:53:24;99574.38;;;-6.17;90.10
76590;BME280;65471;55.908;37.880;2022-12-18T08:55:55;99571.38;;;-6.13;89.42
76590;BME280;65471;55.908;37.880;2022-12-18T08:58:22;99576.50;;;-6.11;90.48
76590;BME280;65471;55.908;37.880;2022-12-18T09:00:49;99564.31;;;-6.12;90.23
76590;BME280;65471;55.908;37.880;2022-12-18T09:03:16;99569.31;;;-6.09;90.74
76590;BME280;65471;55.908;37.880;2022-12-18T09:05:45;99567.38;;;-6.07;90.65
76590;BME280;65471;55.908;37.880;2022-12-18T09:08:12;99573.28;;;-6.15;90.89
76590;BME280;65471;55.908;37.880;2022-12-18T09:10:42;99579.69;;;-6.08;90.93
76590;BME280;65471;55.908;37.880;2022-12-18T09:13:10;99573.34;;;-6.05;90.42
76590;BME280;65471;55.908;37.880;2022-12-18T09:15:55;99569.69;;;-6.14;90.56
76590;BME280;65471;55.908;37.880;2022-12-18T09:18:22;99571.88;;;-5.98;91.39
76590;BME280;65471;55.908;37.880;2022-12-18T09:20:49;99581.28;;;-5.95;91.07
76590;BME280;65471;55.908;37.880;2022-12-18T09:23:19;99584.88;;;-5.96;91.27
76590;BME280;65471;55.908;37.880;2022-12-18T09:25:46;99584.31;;;-5.90;91.65
76590;BME280;65471;55.908;37.880;2022-12-18T09:28:14;99588.31;;;-6.05;91.29
76590;BME280;65471;55.908;37.880;2022-12-18T09:30:43;99598.03;;;-5.96;91.37
76590;BME280;65471;55.908;37.880;2022-12-18T09:33:10;99604.28;;;-5.97;90.48
76590;BME280;65471;55.908;37.880;2022-12-18T09:35:38;99603.81;;;-5.81;90.75
76590;BME280;65471;55.908;37.880;2022-12-18T09:38:05;99614.19;;;-5.80;91.30
76590;BME280;65471;55.908;37.880;2022-12-18T09:40:34;99613.88;;;-5.86;91.66
76590;BME280;65471;55.908;37.880;2022-12-18T09:43:03;99608.41;;;-5.95;91.56
76590;BME280;65471;55.908;37.880;2022-12-18T09:45:42;99620.22;;;-5.89;91.08
76590;BME280;65471;55.908;37.880;2022-12-18T09:48:14;99619.63;;;-5.72;90.88
76590;BME280;65471;55.908;37.880;2022-12-18T09:50:42;99631.09;;;-5.82;90.98
76590;BME280;65471;55.908;37.880;2022-12-18T09:53:14;99638.97;;;-5.82;90.53
76590;BME280;65471;55.908;37.880;2022-12-18T09:55:43;99644.19;;;-5.71;90.68
76590;BME280;65471;55.908;37.880;2022-12-18T10:00:45;99643.31;;;-5.72;91.06
76590;BME280;65471;55.908;37.880;2022-12-18T10:03:13;99642.50;;;-5.72;90.67
76590;BME280;65471;55.908;37.880;2022-12-18T10:08:42;99653.69;;;-5.80;90.53
76590;BME280;65471;55.908;37.880;2022-12-18T10:13:45;99656.00;;;-5.86;90.65
76590;BME280;65471;55.908;37.880;2022-12-18T10:16:31;99658.03;;;-5.90;89.80
76590;BME280;65471;55.908;37.880;2022-12-18T10:22:10;99672.00;;;-5.78;90.53
76590;BME280;65471;55.908;37.880;2022-12-18T10:24:42;99661.59;;;-5.80;90.05
76590;BME280;65471;55.908;37.880;2022-12-18T10:27:16;99669.91;;;-5.75;90.16
76590;BME280;65471;55.908;37.880;2022-12-18T10:29:43;99673.56;;;-5.66;89.84
76590;BME280;65471;55.908;37.880;2022-12-18T10:32:17;99667.03;;;-5.72;89.62
76590;BME280;65471;55.908;37.880;2022-12-18T10:34:47;99667.09;;;-5.83;90.00
76590;BME280;65471;55.908;37.880;2022-12-18T10:37:15;99679.44;;;-5.83;90.45
76590;BME280;65471;55.908;37.880;2022-12-18T10:39:43;99677.41;;;-5.80;90.03
76590;BME280;65471;55.908;37.880;2022-12-18T10:42:13;99674.63;;;-5.78;90.30
76590;BME280;65471;55.908;37.880;2022-12-18T10:44:42;99673.34;;;-5.84;90.52
76590;BME280;65471;55.908;37.880;2022-12-18T10:47:11;99670.13;;;-5.87;90.02
76590;BME280;65471;55.908;37.880;2022-12-18T10:49:40;99671.09;;;-5.88;90.39
76590;BME280;65471;55.908;37.880;2022-12-18T10:52:21;99676.16;;;-5.97;90.93
76590;BME280;65471;55.908;37.880;2022-12-18T10:59:55;99688.78;;;-6.00;90.60
76590;BME280;65471;55.908;37.880;2022-12-18T11:02:36;99690.44;;;-5.99;91.51
76590;BME280;65471;55.908;37.880;2022-12-18T11:05:22;99696.09;;;-6.04;91.37
76590;BME280;65471;55.908;37.880;2022-12-18T11:07:53;99699.22;;;-5.89;91.72
76590;BME280;65471;55.908;37.880;2022-12-18T11:10:25;99710.09;;;-6.03;91.17
76590;BME280;65471;55.908;37.880;2022-12-18T11:12:54;99713.41;;;-6.01;92.02
76590;BME280;65471;55.908;37.880;2022-12-18T11:15:24;99722.28;;;-6.02;91.96
76590;BME280;65471;55.908;37.880;2022-12-18T11:17:52;99723.03;;;-6.12;92.08
76590;BME280;65471;55.908;37.880;2022-12-18T11:20:34;99728.16;;;-6.10;92.14
76590;BME280;65471;55.908;37.880;2022-12-18T11:23:03;99730.34;;;-6.15;91.51
76590;BME280;65471;55.908;37.880;2022-12-18T11:25:32;99740.72;;;-6.02;91.74
76590;BME280;65471;55.908;37.880;2022-12-18T11:28:02;99744.78;;;-5.98;91.72
76590;BME280;65471;55.908;37.880;2022-12-18T11:33:00;99740.72;;;-6.02;91.91
76590;BME280;65471;55.908;37.880;2022-12-18T11:37:58;99766.94;;;-6.12;92.34
76590;BME280;65471;55.908;37.880;2022-12-18T11:40:35;99761.81;;;-6.14;92.22
76590;BME280;65471;55.908;37.880;2022-12-18T11:43:08;99759.41;;;-6.05;92.18
76590;BME280;65471;55.908;37.880;2022-12-18T11:45:50;99760.38;;;-6.18;91.40
76590;BME280;65471;55.908;37.880;2022-12-18T11:48:21;99765.97;;;-6.00;91.96
76590;BME280;65471;55.908;37.880;2022-12-18T11:50:50;99758.75;;;-5.98;92.87
76590;BME280;65471;55.908;37.880;2022-12-18T11:53:18;99766.00;;;-6.11;92.23
76590;BME280;65471;55.908;37.880;2022-12-18T11:58:30;99762.25;;;-6.09;91.68
76590;BME280;65471;55.908;37.880;2022-12-18T12:03:47;99778.19;;;-6.10;91.31
76590;BME280;65471;55.908;37.880;2022-12-18T12:06:25;99774.47;;;-6.08;92.09
76590;BME280;65471;55.908;37.880;2022-12-18T12:08:59;99786.44;;;-6.15;91.71
76590;BME280;65471;55.908;37.880;2022-12-18T12:14:03;99800.44;;;-6.14;91.23
76590;BME280;65471;55.908;37.880;2022-12-18T12:16:37;99805.94;;;-6.17;91.76
76590;BME280;65471;55.908;37.880;2022-12-18T12:19:25;99816.34;;;-6.16;91.39
76590;BME280;65471;55.908;37.880;2022-12-18T12:40:02;99857.91;;;-6.31;91.85
76590;BME280;65471;55.908;37.880;2022-12-18T12:42:51;99860.75;;;-6.22;92.08
76590;BME280;65471;55.908;37.880;2022-12-18T12:46:12;99872.59;;;-6.28;91.62
76590;BME280;65471;55.908;37.880;2022-12-18T12:48:43;99874.75;;;-6.33;91.40
76590;BME280;65471;55.908;37.880;2022-12-18T12:51:21;99873.19;;;-6.25;91.07
76590;BME280;65471;55.908;37.880;2022-12-18T12:53:48;99877.75;;;-6.27;91.27
76590;BME280;65471;55.908;37.880;2022-12-18T12:56:16;99879.19;;;-6.22;91.81
76590;BME280;65471;55.908;37.880;2022-12-18T13:09:26;99917.59;;;-6.31;90.96
76590;BME280;65471;55.908;37.880;2022-12-18T13:12:03;99918.28;;;-6.29;92.07
76590;BME280;65471;55.908;37.880;2022-12-18T13:14:48;99924.38;;;-6.29;91.92
76590;BME280;65471;55.908;37.880;2022-12-18T13:25:02;99946.53;;;-6.31;92.16
76590;BME280;65471;55.908;37.880;2022-12-18T13:30:58;99953.81;;;-6.23;91.68
76590;BME280;65471;55.908;37.880;2022-12-18T13:40:58;99984.44;;;-6.22;92.12
76590;BME280;65471;55.908;37.880;2022-12-18T13:46:29;99988.97;;;-6.25;92.43
76590;BME280;65471;55.908;37.880;2022-12-18T13:48:57;99994.22;;;-6.25;92.22
76590;BME280;65471;55.908;37.880;2022-12-18T13:51:26;100010.50;;;-6.31;91.56
76590;BME280;65471;55.908;37.880;2022-12-18T13:53:55;100014.06;;;-6.32;91.81
76590;BME280;65471;55.908;37.880;2022-12-18T13:56:25;100008.56;;;-6.29;91.72
76590;BME280;65471;55.908;37.880;2022-12-18T13:59:14;100015.88;;;-6.32;91.76
76590;BME280;65471;55.908;37.880;2022-12-18T14:02:27;100024.00;;;-6.35;91.75
76590;BME280;65471;55.908;37.880;2022-12-18T14:07:06;100029.41;;;-6.37;92.32
76590;BME280;65471;55.908;37.880;2022-12-18T14:09:39;100037.75;;;-6.32;92.23
76590;BME280;65471;55.908;37.880;2022-12-18T14:12:06;100040.63;;;-6.35;91.63
76590;BME280;65471;55.908;37.880;2022-12-18T14:15:10;100044.59;;;-6.29;91.99
76590;BME280;65471;55.908;37.880;2022-12-18T14:17:43;100049.22;;;-6.33;91.71
76590;BME280;65471;55.908;37.880;2022-12-18T14:20:14;100056.88;;;-6.41;91.45
76590;BME280;65471;55.908;37.880;2022-12-18T14:22:45;100061.69;;;-6.35;91.37
76590;BME280;65471;55.908;37.880;2022-12-18T14:25:15;100063.69;;;-6.38;91.23
76590;BME280;65471;55.908;37.880;2022-12-18T14:27:44;100080.69;;;-6.43;90.82
76590;BME280;65471;55.908;37.880;2022-12-18T14:32:59;100093.56;;;-6.51;90.48
76590;BME280;65471;55.908;37.880;2022-12-18T14:35:26;100086.00;;;-6.55;90.95
76590;BME280;65471;55.908;37.880;2022-12-18T14:37:53;100093.16;;;-6.57;90.29
76590;BME280;65471;55.908;37.880;2022-12-18T14:40:20;100090.88;;;-6.62;90.56
76590;BME280;65471;55.908;37.880;2022-12-18T14:42:47;100101.06;;;-6.57;90.21
76590;BME280;65471;55.908;37.880;2022-12-18T14:48:08;100097.19;;;-6.65;90.35
76590;BME280;65471;55.908;37.880;2022-12-18T14:50:38;100107.25;;;-6.59;90.39